Time;durP1;ratioP1;P1;durP2;ratioP2;P2;SDS_P1;SDS_P2;PMS_P1;PMS_P2;Temp;Humidity;BMP_temperature;BMP_pressure;BME280_temperature;BME280_humidity;BME280_pressure;Samples;Min_cycle;Max_cycle;Signal;HPM_P1;HPM_P2
2022/12/02 00:00:44;;;;;;;18.23;13.77;;;;;;;4.76;97.73;96845.72;5060417;28;20203;-64
2022/12/02 00:03:13;;;;;;;17.23;12.77;;;;;;;4.77;97.70;96846.56;5059848;28;20210;-64
2022/12/02 00:05:40;;;;;;;18.80;13.90;;;;;;;4.73;97.12;96839.84;5058221;28;20214;-64
2022/12/02 00:08:14;;;;;;;16.97;12.70;;;;;;;4.73;99.23;96838.06;5057951;28;20219;-63
2022/12/02 00:10:41;;;;;;;16.97;13.07;;;;;;;4.75;99.44;96841.41;5059014;28;20221;-63
2022/12/02 00:13:13;;;;;;;18.63;13.67;;;;;;;4.73;99.59;96837.22;5069006;28;20230;-64
2022/12/02 00:15:43;;;;;;;18.30;14.03;;;;;;;4.73;97.75;96839.84;5061931;28;20218;-64
2022/12/02 00:18:10;;;;;;;18.57;13.37;;;;;;;4.72;98.05;96838.16;5075347;28;20210;-63
2022/12/02 00:20:37;;;;;;;18.00;13.77;;;;;;;4.75;98.85;96844.03;5066320;28;20214;-64
2022/12/02 00:23:04;;;;;;;17.97;13.60;;;;;;;4.75;98.49;96840.56;5061865;28;20221;-64
2022/12/02 00:25:31;;;;;;;17.33;12.67;;;;;;;4.73;99.79;96845.91;5060491;28;20211;-64
2022/12/02 00:27:58;;;;;;;19.50;12.97;;;;;;;4.75;97.52;96838.78;5060544;28;20215;-64
2022/12/02 00:30:25;;;;;;;18.90;13.30;;;;;;;4.73;97.36;96835.44;5060610;28;20203;-64
2022/12/02 00:32:53;;;;;;;17.70;14.03;;;;;;;4.71;97.87;96831.25;5059374;28;20241;-63
2022/12/02 00:35:19;;;;;;;17.50;13.20;;;;;;;4.68;97.47;96837.50;5057321;28;20206;-64
2022/12/02 00:37:46;;;;;;;18.60;13.50;;;;;;;4.69;99.45;96843.59;5058057;28;20251;-64
2022/12/02 00:40:13;;;;;;;19.20;13.80;;;;;;;4.68;98.59;96832.28;5057117;28;20719;-63
2022/12/02 00:42:39;;;;;;;17.43;13.00;;;;;;;4.63;98.89;96834.38;5068412;28;20203;-62
2022/12/02 00:47:55;;;;;;;18.07;12.70;;;;;;;4.69;100.00;96833.13;5068505;28;20261;-63
2022/12/02 00:50:22;;;;;;;18.17;13.80;;;;;;;4.67;100.00;96825.38;5057286;28;20212;-64
2022/12/02 00:52:48;;;;;;;16.97;12.23;;;;;;;4.63;99.79;96829.13;5057520;28;20218;-63
2022/12/02 00:55:15;;;;;;;16.90;12.83;;;;;;;4.61;100.00;96831.00;5057599;28;20218;-64
2022/12/02 00:57:42;;;;;;;19.40;13.53;;;;;;;4.60;100.00;96825.88;5066404;28;20199;-63
2022/12/02 01:00:10;;;;;;;18.77;13.63;;;;;;;4.65;100.00;96827.25;5057494;28;20222;-63
2022/12/02 01:02:37;;;;;;;19.50;14.03;;;;;;;4.66;99.95;96825.47;5059540;28;20652;-63
2022/12/02 01:05:06;;;;;;;18.33;12.53;;;;;;;4.64;98.23;96819.50;5056416;28;20981;-63
2022/12/02 01:07:33;;;;;;;18.63;13.37;;;;;;;4.62;100.00;96819.59;5057212;28;20539;-63
2022/12/02 01:09:59;;;;;;;18.77;13.00;;;;;;;4.62;98.88;96822.22;5059856;28;20203;-63
2022/12/02 01:12:26;;;;;;;17.47;12.90;;;;;;;4.60;100.00;96821.50;5057372;28;20218;-63
2022/12/02 01:14:52;;;;;;;17.30;12.67;;;;;;;4.63;100.00;96820.44;5056764;28;20234;-63
2022/12/02 01:17:19;;;;;;;21.70;13.30;;;;;;;4.67;100.00;96814.06;5057051;28;20214;-64
2022/12/02 01:19:45;;;;;;;18.90;13.23;;;;;;;4.67;99.87;96814.91;5056682;28;20222;-64
2022/12/02 01:22:13;;;;;;;18.63;13.87;;;;;;;4.67;99.95;96814.91;5063689;28;20677;-63
2022/12/02 01:24:40;;;;;;;18.87;13.63;;;;;;;4.61;98.81;96819.69;5056921;28;20532;-64
2022/12/02 01:27:07;;;;;;;18.87;13.17;;;;;;;4.61;99.32;96814.44;5057102;28;20221;-63
2022/12/02 01:29:34;;;;;;;17.93;13.13;;;;;;;4.61;100.00;96815.28;5056545;28;20631;-63
2022/12/02 01:32:00;;;;;;;18.13;13.47;;;;;;;4.63;99.58;96820.44;5056889;28;20207;-63
2022/12/02 01:34:26;;;;;;;17.67;12.43;;;;;;;4.65;99.08;96822.00;5056697;28;20227;-64
2022/12/02 01:36:53;;;;;;;18.17;12.83;;;;;;;4.60;100.00;96815.41;5057764;28;20253;-64
2022/12/02 01:39:21;;;;;;;18.13;13.23;;;;;;;4.56;99.51;96825.25;5056667;28;20207;-63
2022/12/02 01:41:48;;;;;;;19.37;13.53;;;;;;;4.58;100.00;96819.91;5066360;28;20214;-63
2022/12/02 01:44:14;;;;;;;17.63;12.90;;;;;;;4.60;100.00;96823.28;5057905;28;20210;-63
2022/12/02 01:46:41;;;;;;;18.80;12.87;;;;;;;4.58;100.00;96825.13;5063674;28;20369;-63
2022/12/02 01:49:08;;;;;;;19.37;13.47;;;;;;;4.52;100.00;96818.53;5057648;28;20222;-64
2022/12/02 01:51:35;;;;;;;15.47;12.53;;;;;;;4.55;100.00;96820.94;5066269;28;20206;-63
2022/12/02 01:54:02;;;;;;;17.03;13.30;;;;;;;4.59;100.00;96816.34;5057765;28;20230;-63
2022/12/02 01:56:30;;;;;;;19.37;13.23;;;;;;;4.61;100.00;96819.69;5056394;28;20628;-63
2022/12/02 01:58:57;;;;;;;18.63;13.70;;;;;;;4.61;100.00;96817.91;5056287;28;20226;-64
2022/12/02 02:01:25;;;;;;;16.43;12.70;;;;;;;4.64;100.00;96819.50;5058585;28;20206;-64
2022/12/02 02:03:52;;;;;;;19.30;13.40;;;;;;;4.65;99.88;96816.78;5056477;28;20195;-63
2022/12/02 02:06:19;;;;;;;17.50;12.90;;;;;;;4.66;100.00;96815.84;5055917;28;20605;-63
2022/12/02 02:08:45;;;;;;;17.20;12.77;;;;;;;4.62;100.00;96811.75;5056012;28;20651;-63
2022/12/02 02:11:12;;;;;;;17.03;12.87;;;;;;;4.67;100.00;96819.31;5055889;28;20214;-63
2022/12/02 02:13:40;;;;;;;17.07;12.73;;;;;;;4.67;100.00;96814.06;5056195;28;20218;-64
2022/12/02 02:16:07;;;;;;;18.03;13.67;;;;;;;4.64;100.00;96822.13;5056926;28;20203;-63
2022/12/02 02:18:34;;;;;;;17.27;13.00;;;;;;;4.63;100.00;96823.06;5057505;28;20218;-63
2022/12/02 02:21:02;;;;;;;19.07;13.63;;;;;;;4.55;99.75;96815.72;5055088;28;20317;-64
2022/12/02 02:23:29;;;;;;;18.80;13.53;;;;;;;4.59;100.00;96811.94;5059194;28;20214;-63
2022/12/02 02:25:58;;;;;;;17.83;12.80;;;;;;;4.61;100.00;96814.44;5055785;28;20217;-64
2022/12/02 02:28:26;;;;;;;17.73;13.17;;;;;;;4.57;99.17;96810.38;5055824;28;20301;-63
2022/12/02 02:30:55;;;;;;;16.37;12.93;;;;;;;4.56;99.96;96806.91;5055626;28;20214;-63
2022/12/02 02:33:22;;;;;;;16.73;12.63;;;;;;;4.57;100.00;96807.75;5061705;28;20218;-64
2022/12/02 02:35:49;;;;;;;19.10;14.07;;;;;;;4.50;100.00;96804.69;5056614;28;20285;-64
2022/12/02 02:38:18;;;;;;;17.50;12.57;;;;;;;4.51;100.00;96804.59;5055706;28;20210;-63
2022/12/02 02:40:47;;;;;;;16.50;12.60;;;;;;;4.49;100.00;96800.41;5057359;28;20195;-64
2022/12/02 02:43:14;;;;;;;19.50;13.37;;;;;;;4.52;100.00;96794.97;5065374;28;20203;-63
2022/12/02 02:45:42;;;;;;;16.70;13.17;;;;;;;4.54;100.00;96795.69;5059571;28;20636;-63
2022/12/02 02:48:10;;;;;;;15.77;12.13;;;;;;;4.61;100.00;96794.34;5055319;28;20211;-64
2022/12/02 02:50:39;;;;;;;18.30;12.83;;;;;;;4.58;100.00;96794.56;5054941;28;20215;-63
2022/12/02 02:53:06;;;;;;;17.60;13.10;;;;;;;4.57;100.00;96792.06;5055341;28;20567;-63
2022/12/02 02:55:33;;;;;;;17.77;13.37;;;;;;;4.58;100.00;96784.06;5067624;28;20284;-64
2022/12/02 02:58:09;;;;;;;17.67;12.87;;;;;;;4.58;100.00;96784.06;5055163;28;20218;-63
2022/12/02 03:00:36;;;;;;;16.50;12.67;;;;;;;4.58;100.00;96784.06;5055046;28;20202;-63
2022/12/02 03:03:03;;;;;;;18.20;13.70;;;;;;;4.60;100.00;96784.81;5062018;28;20630;-63
2022/12/02 03:05:30;;;;;;;17.70;12.67;;;;;;;4.60;100.00;96776.97;5068358;28;20203;-63
2022/12/02 03:07:56;;;;;;;16.17;12.40;;;;;;;4.59;100.00;96780.53;5055084;28;20297;-63
2022/12/02 03:10:23;;;;;;;17.60;12.73;;;;;;;4.59;100.00;96774.44;5055163;28;20214;-63
2022/12/02 03:12:52;;;;;;;16.80;12.43;;;;;;;4.59;100.00;96775.28;5054967;28;20552;-64
2022/12/02 03:15:21;;;;;;;15.17;12.23;;;;;;;4.56;100.00;96777.28;5054641;28;20614;-63
2022/12/02 03:17:47;;;;;;;17.27;12.67;;;;;;;4.53;100.00;96773.91;5054466;28;20211;-64
2022/12/02 03:20:14;;;;;;;15.87;12.10;;;;;;;4.55;100.00;96767.72;5054504;28;20236;-63
2022/12/02 03:22:41;;;;;;;17.60;12.90;;;;;;;4.51;100.00;96772.34;5054898;28;20210;-64
2022/12/02 03:25:08;;;;;;;18.60;12.70;;;;;;;4.52;100.00;96771.41;5054040;28;20532;-64
2022/12/02 03:27:35;;;;;;;16.10;12.53;;;;;;;4.53;100.00;96767.84;5054588;28;20218;-64
2022/12/02 03:30:02;;;;;;;16.90;12.97;;;;;;;4.56;100.00;96766.78;5054942;28;20200;-64
2022/12/02 03:32:31;;;;;;;17.00;13.07;;;;;;;4.52;100.00;96774.03;5056280;28;20207;-63
2022/12/02 03:34:57;;;;;;;17.83;13.03;;;;;;;4.56;100.00;96769.41;5055695;28;20223;-63
2022/12/02 03:37:24;;;;;;;17.30;12.73;;;;;;;4.61;100.00;96767.31;5058665;28;20292;-63
2022/12/02 03:39:51;;;;;;;16.80;12.13;;;;;;;4.59;100.00;96764.81;5056267;28;20207;-63
2022/12/02 03:42:18;;;;;;;17.43;13.13;;;;;;;4.58;100.00;96773.59;5071052;28;20644;-64
2022/12/02 03:44:45;;;;;;;16.13;12.03;;;;;;;4.53;100.00;96770.47;5054987;28;20207;-64
2022/12/02 03:47:12;;;;;;;16.53;12.50;;;;;;;4.55;99.91;96771.19;5059664;28;20215;-64
2022/12/02 03:49:40;;;;;;;14.93;11.97;;;;;;;4.53;100.00;96771.28;5067318;28;20217;-64
2022/12/02 03:52:07;;;;;;;16.90;12.33;;;;;;;4.59;99.90;96770.03;5056712;28;20218;-64
2022/12/02 03:54:34;;;;;;;16.63;12.50;;;;;;;4.55;100.00;96771.19;5054403;28;20242;-64
2022/12/02 03:57:00;;;;;;;16.70;12.20;;;;;;;4.50;100.00;96762.78;5054233;28;20195;-64
2022/12/02 03:59:27;;;;;;;15.33;12.23;;;;;;;4.48;100.00;96760.28;5054683;28;20202;-62
2022/12/02 04:01:54;;;;;;;16.03;12.17;;;;;;;4.52;100.00;96768.78;5054735;28;20588;-64
2022/12/02 04:04:21;;;;;;;15.30;11.20;;;;;;;4.61;100.00;96759.44;5055130;28;20627;-63
2022/12/02 04:06:49;;;;;;;16.23;12.03;;;;;;;4.56;100.00;96764.19;5057297;28;20211;-64
2022/12/02 04:09:16;;;;;;;14.90;11.83;;;;;;;4.61;100.00;96762.91;5057041;28;20226;-64
2022/12/02 04:11:43;;;;;;;15.43;12.20;;;;;;;4.56;100.00;96753.69;5054957;28;20198;-64
2022/12/02 04:14:09;;;;;;;16.17;12.33;;;;;;;4.56;100.00;96756.31;5054695;28;20223;-63
2022/12/02 04:16:36;;;;;;;16.57;12.27;;;;;;;4.52;100.00;96753.06;5054922;28;20643;-63
2022/12/02 04:19:03;;;;;;;16.00;11.87;;;;;;;4.53;100.00;96748.69;5055504;28;20213;-64
2022/12/02 04:21:29;;;;;;;15.70;12.27;;;;;;;4.55;100.00;96744.16;5059099;28;20211;-64
2022/12/02 04:23:57;;;;;;;17.67;11.93;;;;;;;4.60;100.00;96744.69;5054109;28;20217;-64
2022/12/02 04:26:23;;;;;;;16.40;12.33;;;;;;;4.51;99.99;96747.00;5054383;28;20207;-63
2022/12/02 04:28:50;;;;;;;14.87;11.93;;;;;;;4.53;99.38;96744.28;5055616;28;20203;-63
2022/12/02 04:31:16;;;;;;;16.73;11.93;;;;;;;4.43;100.00;96737.97;5055323;28;20203;-64
2022/12/02 04:33:43;;;;;;;15.00;11.37;;;;;;;4.47;100.00;96739.44;5055208;28;20215;-64
2022/12/02 04:36:09;;;;;;;17.17;12.40;;;;;;;4.46;100.00;96745.63;5058721;28;20246;-65
2022/12/02 04:38:36;;;;;;;14.87;11.50;;;;;;;4.44;100.00;96734.41;5060206;28;20211;-64
2022/12/02 04:41:04;;;;;;;15.87;12.10;;;;;;;4.51;100.00;96735.66;5061134;28;20195;-64
2022/12/02 04:43:31;;;;;;;14.03;11.07;;;;;;;4.54;100.00;96738.09;5064764;28;20223;-64
2022/12/02 04:45:57;;;;;;;14.57;11.93;;;;;;;4.52;100.00;96737.34;5061506;28;20666;-63
2022/12/02 04:48:24;;;;;;;14.73;11.20;;;;;;;4.50;100.00;96736.59;5057506;28;20547;-63
2022/12/02 04:50:51;;;;;;;15.67;12.03;;;;;;;4.53;100.00;96729.38;5057042;28;20211;-64
2022/12/02 04:53:18;;;;;;;14.60;11.80;;;;;;;4.53;100.00;96738.19;5057714;28;20215;-64
2022/12/02 04:55:45;;;;;;;16.67;12.10;;;;;;;4.58;100.00;96736.94;5057318;28;20675;-64
2022/12/02 04:58:13;;;;;;;16.13;11.70;;;;;;;4.51;100.00;96733.06;5057781;28;20595;-63
2022/12/02 05:00:40;;;;;;;14.97;11.80;;;;;;;4.49;100.00;96733.19;5057670;28;20215;-64
2022/12/02 05:03:07;;;;;;;14.80;11.20;;;;;;;4.45;100.00;96734.31;5057752;28;20203;-64
2022/12/02 05:05:34;;;;;;;14.80;10.77;;;;;;;4.42;100.00;96733.69;5057253;28;20218;-64
2022/12/02 05:08:00;;;;;;;15.77;11.43;;;;;;;4.42;100.00;96734.53;5057747;28;20207;-64
2022/12/02 05:10:27;;;;;;;15.63;11.73;;;;;;;4.42;100.00;96733.69;5058057;28;20210;-64
2022/12/02 05:12:54;;;;;;;14.23;11.33;;;;;;;4.49;100.00;96730.56;5056829;28;20265;-64
2022/12/02 05:15:21;;;;;;;15.20;11.37;;;;;;;4.47;100.00;96734.19;5056618;28;20242;-64
2022/12/02 05:17:48;;;;;;;14.70;11.50;;;;;;;4.48;100.00;96730.66;5057315;28;20218;-64
2022/12/02 05:20:15;;;;;;;15.17;10.40;;;;;;;4.49;100.00;96733.19;5056202;28;20272;-64
2022/12/02 05:22:42;;;;;;;15.60;11.20;;;;;;;4.50;100.00;96728.75;5070568;28;20221;-64
2022/12/02 05:25:08;;;;;;;14.20;11.70;;;;;;;4.51;100.00;96728.66;5056615;28;20547;-64
2022/12/02 05:27:35;;;;;;;17.77;12.90;;;;;;;4.51;100.00;96733.91;5056640;28;20649;-64
2022/12/02 05:30:02;;;;;;;14.17;11.23;;;;;;;4.58;100.00;96725.63;5058142;28;20273;-64
2022/12/02 05:32:30;;;;;;;13.63;11.40;;;;;;;4.49;100.00;96730.56;5056640;28;20211;-63
2022/12/02 05:34:57;;;;;;;15.03;11.23;;;;;;;4.49;100.00;96727.09;5070768;28;20234;-64
2022/12/02 05:37:23;;;;;;;14.80;10.63;;;;;;;4.49;100.00;96727.09;5064191;28;20237;-63
2022/12/02 05:39:50;;;;;;;12.87;10.70;;;;;;;4.51;100.00;96726.03;5058822;28;20214;-64
2022/12/02 05:42:17;;;;;;;15.30;11.37;;;;;;;4.50;100.00;96723.50;5064236;28;20213;-64
2022/12/02 05:44:43;;;;;;;15.73;11.00;;;;;;;4.56;100.00;96728.34;5056795;28;20632;-64
2022/12/02 05:47:12;;;;;;;13.70;11.13;;;;;;;4.53;100.00;96731.19;5059863;28;20218;-63
2022/12/02 05:49:42;;;;;;;15.33;11.83;;;;;;;4.57;100.00;96735.25;5056538;28;20528;-63
2022/12/02 05:52:19;;;;;;;13.23;10.07;;;;;;;4.55;100.00;96726.66;5056615;28;20218;-64
2022/12/02 05:54:45;;;;;;;12.97;10.20;;;;;;;4.52;100.00;96737.34;5056667;28;20226;-64
2022/12/02 05:57:12;;;;;;;14.47;10.57;;;;;;;4.55;100.00;96733.69;5057207;28;20210;-64
2022/12/02 05:59:39;;;;;;;13.87;10.83;;;;;;;4.55;100.00;96736.31;5069554;28;20694;-64
2022/12/02 06:02:24;;;;;;;14.87;11.53;;;;;;;4.53;100.00;96737.25;5057657;28;20209;-64
2022/12/02 06:04:52;;;;;;;16.13;10.70;;;;;;;4.56;100.00;96736.22;5055928;28;20631;-63
2022/12/02 06:07:19;;;;;;;13.37;10.43;;;;;;;4.55;100.00;96734.53;5056424;28;20219;-64
2022/12/02 06:09:45;;;;;;;14.47;11.20;;;;;;;4.61;100.00;96731.47;5055791;28;20639;-64
2022/12/02 06:12:15;;;;;;;15.40;11.00;;;;;;;4.58;100.00;96730.84;5056358;28;20211;-64
2022/12/02 06:14:43;;;;;;;13.70;10.70;;;;;;;4.50;100.00;96741.84;5056265;28;21070;-63
2022/12/02 06:17:15;;;;;;;14.07;10.23;;;;;;;4.51;100.00;96730.44;5059092;28;20203;-63
2022/12/02 06:19:45;;;;;;;14.00;10.60;;;;;;;4.55;100.00;96733.69;5056133;28;20207;-63
2022/12/02 06:22:17;;;;;;;13.20;10.33;;;;;;;4.53;100.00;96736.44;5056470;28;20210;-63
2022/12/02 06:24:44;;;;;;;12.90;9.77;;;;;;;4.53;100.00;96733.81;5056073;28;20206;-63
2022/12/02 06:27:12;;;;;;;13.20;10.20;;;;;;;4.59;100.00;96733.38;5056081;28;20206;-63
2022/12/02 06:29:44;;;;;;;12.63;10.67;;;;;;;4.59;100.00;96728.16;5055523;28;20214;-64
2022/12/02 06:32:15;;;;;;;13.37;10.40;;;;;;;4.58;100.00;96736.09;5056292;28;20203;-63
2022/12/02 06:34:43;;;;;;;14.13;10.47;;;;;;;4.58;100.00;96731.69;5055718;28;20230;-63
2022/12/02 06:37:16;;;;;;;13.97;10.77;;;;;;;4.58;99.15;96725.63;5056151;28;20231;-63
2022/12/02 06:39:44;;;;;;;14.73;10.73;;;;;;;4.49;100.00;96727.09;5055477;28;20191;-63
2022/12/02 06:42:18;;;;;;;12.67;10.67;;;;;;;4.47;100.00;96739.44;5063543;28;20300;-64
2022/12/02 06:47:50;;;;;;;15.87;11.70;;;;;;;4.51;100.00;96730.44;5057979;28;20229;-63
2022/12/02 06:50:32;;;;;;;13.87;10.60;;;;;;;4.48;100.00;96728.88;5059027;28;20211;-64
2022/12/02 06:53:25;;;;;;;14.07;9.83;;;;;;;4.50;100.00;96734.00;5066958;28;20203;-63
2022/12/02 06:55:54;;;;;;;14.07;9.77;;;;;;;4.53;100.00;96733.81;5063329;28;20218;-62
2022/12/02 06:58:32;;;;;;;11.63;9.20;;;;;;;4.52;100.00;96737.34;5065392;28;20344;-64
2022/12/02 07:01:29;;;;;;;13.97;9.80;;;;;;;4.57;100.00;96735.25;5064827;28;20531;-62
2022/12/02 07:04:21;;;;;;;12.40;9.50;;;;;;;4.59;100.00;96727.31;5065459;28;20209;-62
2022/12/02 07:06:51;;;;;;;12.07;10.20;;;;;;;4.62;100.00;96735.78;5061388;28;20203;-63
2022/12/02 07:09:22;;;;;;;13.60;10.40;;;;;;;4.67;100.00;96725.84;5061532;28;20234;-64
2022/12/02 07:11:50;;;;;;;12.10;10.07;;;;;;;4.68;100.00;96731.91;5064211;28;20195;-63
2022/12/02 07:14:22;;;;;;;13.47;9.90;;;;;;;4.59;100.00;96728.16;5069449;28;20206;-64
2022/12/02 07:16:49;;;;;;;13.60;9.87;;;;;;;4.64;100.00;96731.28;5067747;28;20210;-64
2022/12/02 07:19:20;;;;;;;11.77;9.50;;;;;;;4.66;100.00;96739.88;5068416;28;20214;-62
2022/12/02 07:21:48;;;;;;;12.80;10.00;;;;;;;4.68;99.25;96726.66;5065244;28;20195;-63
2022/12/02 07:24:16;;;;;;;12.50;9.60;;;;;;;4.69;100.00;96733.59;5065747;28;20212;-62
2022/12/02 07:26:46;;;;;;;11.67;9.30;;;;;;;4.73;100.00;96733.28;5069953;28;20201;-62
2022/12/02 07:29:15;;;;;;;13.10;9.73;;;;;;;4.74;99.12;96727.09;5068797;28;20646;-62
2022/12/02 07:31:43;;;;;;;14.50;9.60;;;;;;;4.78;100.00;96727.72;5076481;28;20233;-62
2022/12/02 07:34:11;;;;;;;13.30;9.63;;;;;;;4.79;100.00;96724.97;5091019;28;20197;-62
2022/12/02 07:36:37;;;;;;;12.93;9.63;;;;;;;4.80;100.00;96720.59;5081184;28;20226;-64
2022/12/02 07:39:04;;;;;;;10.80;9.47;;;;;;;4.91;99.34;96728.56;5071129;28;20203;-62
2022/12/02 07:41:30;;;;;;;12.50;8.37;;;;;;;4.95;97.58;96724.78;5067318;28;20207;-63
2022/12/02 07:43:58;;;;;;;10.57;8.77;;;;;;;4.89;96.82;96720.78;5073643;28;20199;-64
2022/12/02 07:46:25;;;;;;;11.53;9.17;;;;;;;4.77;100.00;96726.03;5062956;28;20195;-65
2022/12/02 07:48:52;;;;;;;11.57;9.23;;;;;;;4.77;100.00;96721.66;5073501;28;20206;-65
2022/12/02 07:51:19;;;;;;;11.27;9.10;;;;;;;4.78;100.00;96725.09;5063347;28;20207;-65
2022/12/02 07:53:45;;;;;;;10.77;8.60;;;;;;;4.80;100.00;96729.28;5071154;28;20206;-65
2022/12/02 07:56:12;;;;;;;11.43;8.90;;;;;;;4.80;100.00;96724.06;5063232;28;20567;-64
2022/12/02 07:58:38;;;;;;;10.17;8.60;;;;;;;4.79;100.00;96714.50;5060471;28;20202;-65
2022/12/02 08:01:06;;;;;;;14.30;9.43;;;;;;;4.80;100.00;96725.81;5057692;28;20210;-65
2022/12/02 08:03:33;;;;;;;10.70;8.90;;;;;;;4.81;99.52;96717.03;5068303;28;20203;-65
2022/12/02 08:05:59;;;;;;;12.17;8.83;;;;;;;4.77;99.64;96724.28;5056847;28;20211;-65
2022/12/02 08:08:26;;;;;;;12.13;9.43;;;;;;;4.77;98.07;96712.94;5057613;28;20298;-65
2022/12/02 08:10:53;;;;;;;12.40;9.07;;;;;;;4.79;97.23;96719.75;5058557;28;20218;-65
2022/12/02 08:13:19;;;;;;;12.30;9.23;;;;;;;4.70;97.94;96720.41;5066489;28;20416;-65
2022/12/02 08:15:46;;;;;;;12.13;9.70;;;;;;;4.73;99.66;96714.09;5067338;28;20231;-65
2022/12/02 08:18:14;;;;;;;11.43;9.27;;;;;;;4.76;100.00;96719.97;5059587;28;20655;-65
2022/12/02 08:20:41;;;;;;;14.17;9.30;;;;;;;4.79;100.00;96716.28;5058104;28;20202;-65
2022/12/02 08:23:07;;;;;;;12.17;9.80;;;;;;;4.77;99.76;96723.44;5058188;28;20206;-63
2022/12/02 08:25:33;;;;;;;13.23;9.50;;;;;;;4.84;100.00;96728.13;5058318;28;20651;-65
2022/12/02 08:28:00;;;;;;;13.33;9.00;;;;;;;4.84;100.00;96722.91;5058061;28;20211;-65
2022/12/02 08:30:27;;;;;;;11.13;9.00;;;;;;;4.81;100.00;96728.34;5059809;28;20540;-65
2022/12/02 08:32:54;;;;;;;11.53;8.83;;;;;;;4.83;98.93;96720.38;5058238;28;20223;-65
2022/12/02 08:35:21;;;;;;;12.23;8.97;;;;;;;4.86;98.79;96720.16;5058079;28;20263;-65
2022/12/02 08:37:49;;;;;;;12.07;9.30;;;;;;;4.89;96.92;96726.03;5058372;28;20231;-65
2022/12/02 08:40:16;;;;;;;10.30;8.33;;;;;;;4.83;98.69;96725.63;5057764;28;20543;-65
2022/12/02 08:42:43;;;;;;;12.37;9.60;;;;;;;4.82;99.88;96723.94;5069196;28;20195;-65
2022/12/02 08:45:10;;;;;;;12.53;8.83;;;;;;;4.85;99.61;96723.75;5068449;28;20213;-64
2022/12/02 08:47:37;;;;;;;12.17;9.33;;;;;;;4.90;98.28;96727.72;5058026;28;20551;-65
2022/12/02 08:50:05;;;;;;;14.40;9.33;;;;;;;4.83;97.06;96726.47;5057429;28;20217;-63
2022/12/02 08:52:33;;;;;;;12.40;9.10;;;;;;;4.86;97.96;96728.03;5057991;28;20218;-64
2022/12/02 08:55:00;;;;;;;11.93;9.23;;;;;;;4.85;98.24;96724.56;5057498;28;20211;-64
2022/12/02 08:57:26;;;;;;;10.27;8.50;;;;;;;4.85;99.54;96723.75;5059301;28;20624;-65
2022/12/02 08:59:53;;;;;;;9.67;8.27;;;;;;;4.91;98.76;96723.31;5059797;28;20524;-65
2022/12/02 09:02:19;;;;;;;10.70;8.77;;;;;;;4.91;98.56;96718.91;5058610;28;20219;-64
2022/12/02 09:04:47;;;;;;;10.73;8.60;;;;;;;4.88;99.53;96723.53;5062099;28;20211;-63
2022/12/02 09:07:13;;;;;;;11.27;8.43;;;;;;;4.91;98.03;96718.91;5058006;28;20265;-64
2022/12/02 09:09:42;;;;;;;10.13;9.07;;;;;;;4.87;100.00;96713.97;5061596;28;20207;-65
2022/12/02 09:12:09;;;;;;;10.57;8.73;;;;;;;4.89;99.75;96715.53;5057793;28;20210;-65
2022/12/02 09:14:36;;;;;;;10.27;8.70;;;;;;;4.92;100.00;96720.56;5065446;28;20203;-65
2022/12/02 09:17:02;;;;;;;11.17;9.37;;;;;;;4.93;100.00;96719.63;5066690;28;20227;-64
2022/12/02 09:19:29;;;;;;;9.90;8.60;;;;;;;4.99;99.96;96721.00;5069002;28;20216;-65
2022/12/02 09:21:56;;;;;;;10.63;8.50;;;;;;;5.01;98.84;96719.94;5057313;28;20222;-65
2022/12/02 09:24:22;;;;;;;10.97;8.87;;;;;;;5.00;98.94;96715.63;5063619;28;20199;-65
2022/12/02 09:26:50;;;;;;;12.03;8.40;;;;;;;4.97;98.91;96726.34;5061735;28;20195;-65
2022/12/02 09:29:17;;;;;;;11.30;9.20;;;;;;;5.03;99.48;96715.41;5056685;28;20697;-64
2022/12/02 09:31:43;;;;;;;9.63;7.87;;;;;;;4.98;98.64;96724.56;5057219;28;20203;-64
2022/12/02 09:34:10;;;;;;;11.00;8.70;;;;;;;5.01;98.41;96722.56;5056894;28;20225;-64
2022/12/02 09:36:37;;;;;;;10.63;8.60;;;;;;;5.03;99.08;96727.69;5057097;28;20675;-65
2022/12/02 09:39:05;;;;;;;11.33;9.23;;;;;;;5.07;98.71;96723.06;5057737;28;20207;-65
2022/12/02 09:41:33;;;;;;;10.73;8.87;;;;;;;4.95;96.77;96715.13;5074126;28;20214;-65
2022/12/02 09:44:01;;;;;;;12.73;9.53;;;;;;;5.00;96.03;96717.41;5059325;28;20207;-64
2022/12/02 09:46:28;;;;;;;11.33;9.07;;;;;;;5.00;98.61;96715.63;5060120;28;20203;-64
2022/12/02 09:48:56;;;;;;;11.27;8.13;;;;;;;5.03;98.24;96713.75;5056305;28;20628;-65
2022/12/02 09:51:23;;;;;;;11.03;8.40;;;;;;;5.09;98.36;96710.69;5060879;28;20218;-63
2022/12/02 09:53:50;;;;;;;9.97;8.20;;;;;;;5.10;100.00;96705.34;5056967;28;20230;-65
2022/12/02 09:56:18;;;;;;;13.80;8.60;;;;;;;5.11;97.34;96703.56;5057150;28;20226;-64
2022/12/02 09:58:45;;;;;;;9.70;8.53;;;;;;;5.12;96.77;96705.25;5058302;28;20199;-64
2022/12/02 10:01:14;;;;;;;9.40;7.93;;;;;;;5.08;98.07;96696.75;5057914;28;20226;-64
2022/12/02 10:03:40;;;;;;;8.93;7.87;;;;;;;5.14;98.51;96698.09;5060828;28;20207;-64
2022/12/02 10:06:09;;;;;;;9.10;8.20;;;;;;;5.14;98.02;96695.47;5061109;28;20215;-65
2022/12/02 10:08:37;;;;;;;9.30;8.30;;;;;;;5.13;96.54;96692.03;5063038;28;20676;-64
2022/12/02 10:11:05;;;;;;;12.70;8.53;;;;;;;5.15;96.87;96694.53;5079207;28;20629;-64
2022/12/02 10:13:34;;;;;;;9.27;7.87;;;;;;;5.16;97.52;96690.97;5056441;28;20207;-62
2022/12/02 10:16:02;;;;;;;10.97;8.60;;;;;;;5.24;96.40;96688.66;5063753;28;20321;-63
2022/12/02 10:18:31;;;;;;;10.87;8.80;;;;;;;5.13;96.41;96691.19;5069196;28;20685;-64
2022/12/02 10:20:58;;;;;;;12.40;9.50;;;;;;;5.18;95.66;96686.44;5060501;28;20317;-64
2022/12/02 10:23:25;;;;;;;11.17;8.90;;;;;;;5.13;95.55;96681.56;5056242;28;20290;-64
2022/12/02 10:25:54;;;;;;;11.93;9.23;;;;;;;5.22;95.58;96685.28;5057574;28;20207;-64
2022/12/02 10:28:24;;;;;;;9.97;8.90;;;;;;;5.22;95.95;96680.03;5064562;28;20210;-64
2022/12/02 10:30:54;;;;;;;10.73;8.47;;;;;;;5.23;95.91;96673.88;5062352;28;20632;-65
2022/12/02 10:33:24;;;;;;;9.00;8.10;;;;;;;5.18;95.81;96671.56;5060645;28;20219;-64
2022/12/02 10:35:55;;;;;;;11.00;9.17;;;;;;;5.28;94.67;96669.16;5055824;28;20243;-65
2022/12/02 10:38:39;;;;;;;10.57;8.63;;;;;;;5.25;94.83;96664.09;5062022;28;20269;-64
2022/12/02 10:41:13;;;;;;;10.23;8.57;;;;;;;5.24;95.98;96672.94;5058251;28;20198;-62
2022/12/02 10:43:40;;;;;;;10.07;8.50;;;;;;;5.32;97.11;96667.94;5059908;28;20203;-63
2022/12/02 10:46:06;;;;;;;9.97;8.50;;;;;;;5.37;95.84;96668.47;5060004;28;20202;-63
2022/12/02 10:48:34;;;;;;;13.10;8.77;;;;;;;5.35;95.50;96671.19;5054233;28;20214;-64
2022/12/02 10:51:02;;;;;;;9.93;8.63;;;;;;;5.41;95.53;96664.69;5054683;28;20655;-64
2022/12/02 10:53:30;;;;;;;11.97;8.80;;;;;;;5.44;95.39;96654.81;5055616;28;20532;-64
2022/12/02 10:55:57;;;;;;;10.13;9.07;;;;;;;5.42;95.33;96666.38;5058022;28;20305;-64
2022/12/02 10:58:27;;;;;;;11.47;8.50;;;;;;;5.52;95.54;96659.50;5062699;28;20232;-65
2022/12/02 11:00:54;;;;;;;10.80;8.67;;;;;;;5.60;94.98;96653.69;5055347;28;20214;-64
2022/12/02 11:03:21;;;;;;;11.07;8.73;;;;;;;5.63;94.55;96654.31;5055425;28;20221;-65
2022/12/02 11:05:48;;;;;;;11.27;8.87;;;;;;;5.73;93.65;96652.69;5055060;28;20203;-64
2022/12/02 11:08:21;;;;;;;11.50;8.83;;;;;;;5.80;94.80;96651.28;5055176;28;20276;-65
2022/12/02 11:10:49;;;;;;;11.13;9.27;;;;;;;5.81;92.79;96649.50;5054852;28;20199;-65
2022/12/02 11:13:48;;;;;;;14.27;9.10;;;;;;;5.79;92.61;96643.50;5055176;28;20203;-65
2022/12/02 11:16:44;;;;;;;9.93;8.93;;;;;;;5.87;92.59;96642.03;5055133;28;20226;-64
2022/12/02 11:19:39;;;;;;;10.97;9.47;;;;;;;5.99;94.01;96637.63;5055021;28;20551;-65
2022/12/02 11:22:44;;;;;;;9.73;8.70;;;;;;;6.08;92.43;96633.47;5057059;28;20534;-64
2022/12/02 11:25:46;;;;;;;10.43;8.80;;;;;;;6.10;90.87;96628.94;5057748;28;20215;-65
2022/12/02 11:28:18;;;;;;;10.63;9.00;;;;;;;6.21;91.21;96624.56;5056899;28;20293;-65
2022/12/02 11:30:46;;;;;;;10.83;9.70;;;;;;;6.29;92.75;96618.72;5059678;28;20233;-65
2022/12/02 11:33:14;;;;;;;12.43;9.13;;;;;;;6.28;89.13;96625.75;5060598;28;20219;-65
2022/12/02 11:36:04;;;;;;;11.73;9.77;;;;;;;6.44;90.46;96620.19;5062362;28;20201;-65